sensor_id;sensor_type;location;lat;lon;timestamp;P1;durP1;ratioP1;P2;durP2;ratioP2
67861;SDS011;54665;51.462;6.698;2023-02-28T00:00:09;12.87;;;4.80;;
67861;SDS011;54665;51.462;6.698;2023-02-28T00:02:37;11.02;;;4.88;;
67861;SDS011;54665;51.462;6.698;2023-02-28T00:05:04;11.30;;;4.93;;
67861;SDS011;54665;51.462;6.698;2023-02-28T00:07:30;10.10;;;4.70;;
67861;SDS011;54665;51.462;6.698;2023-02-28T00:09:56;14.80;;;5.27;;
67861;SDS011;54665;51.462;6.698;2023-02-28T00:12:22;13.50;;;5.32;;
67861;SDS011;54665;51.462;6.698;2023-02-28T00:14:48;12.77;;;5.45;;
67861;SDS011;54665;51.462;6.698;2023-02-28T00:17:14;12.83;;;5.13;;
67861;SDS011;54665;51.462;6.698;2023-02-28T00:19:41;12.70;;;5.07;;
67861;SDS011;54665;51.462;6.698;2023-02-28T00:22:06;13.73;;;5.33;;
67861;SDS011;54665;51.462;6.698;2023-02-28T00:24:32;12.80;;;5.85;;
67861;SDS011;54665;51.462;6.698;2023-02-28T00:26:57;14.33;;;5.33;;
67861;SDS011;54665;51.462;6.698;2023-02-28T00:29:22;13.10;;;5.20;;
67861;SDS011;54665;51.462;6.698;2023-02-28T00:31:48;13.27;;;5.60;;
67861;SDS011;54665;51.462;6.698;2023-02-28T00:34:13;12.82;;;5.30;;
67861;SDS011;54665;51.462;6.698;2023-02-28T00:36:39;13.57;;;5.00;;
67861;SDS011;54665;51.462;6.698;2023-02-28T00:39:05;12.75;;;5.55;;
67861;SDS011;54665;51.462;6.698;2023-02-28T00:41:31;10.77;;;4.97;;
67861;SDS011;54665;51.462;6.698;2023-02-28T00:43:56;11.13;;;4.70;;
67861;SDS011;54665;51.462;6.698;2023-02-28T00:46:22;11.63;;;4.50;;
67861;SDS011;54665;51.462;6.698;2023-02-28T00:48:49;10.75;;;4.28;;
67861;SDS011;54665;51.462;6.698;2023-02-28T00:51:14;11.07;;;4.50;;
67861;SDS011;54665;51.462;6.698;2023-02-28T00:53:40;11.20;;;3.90;;
67861;SDS011;54665;51.462;6.698;2023-02-28T00:56:05;11.20;;;4.10;;
67861;SDS011;54665;51.462;6.698;2023-02-28T00:58:31;13.45;;;4.40;;
67861;SDS011;54665;51.462;6.698;2023-02-28T01:00:56;15.20;;;3.90;;
67861;SDS011;54665;51.462;6.698;2023-02-28T01:03:22;9.90;;;4.13;;
67861;SDS011;54665;51.462;6.698;2023-02-28T01:05:48;11.18;;;4.18;;
67861;SDS011;54665;51.462;6.698;2023-02-28T01:08:15;8.93;;;3.97;;
67861;SDS011;54665;51.462;6.698;2023-02-28T01:10:41;7.87;;;3.50;;
67861;SDS011;54665;51.462;6.698;2023-02-28T01:13:07;9.65;;;4.10;;
67861;SDS011;54665;51.462;6.698;2023-02-28T01:15:35;9.60;;;3.65;;
67861;SDS011;54665;51.462;6.698;2023-02-28T01:18:01;8.87;;;3.60;;
67861;SDS011;54665;51.462;6.698;2023-02-28T01:20:27;7.80;;;3.60;;
67861;SDS011;54665;51.462;6.698;2023-02-28T01:22:52;11.10;;;3.63;;
67861;SDS011;54665;51.462;6.698;2023-02-28T01:25:17;7.90;;;3.30;;
67861;SDS011;54665;51.462;6.698;2023-02-28T01:27:43;8.17;;;3.00;;
67861;SDS011;54665;51.462;6.698;2023-02-28T01:30:09;9.03;;;3.53;;
67861;SDS011;54665;51.462;6.698;2023-02-28T01:32:35;9.57;;;3.58;;
67861;SDS011;54665;51.462;6.698;2023-02-28T01:35:02;8.65;;;3.60;;
67861;SDS011;54665;51.462;6.698;2023-02-28T01:37:28;8.03;;;3.47;;
67861;SDS011;54665;51.462;6.698;2023-02-28T01:39:53;10.60;;;3.73;;
67861;SDS011;54665;51.462;6.698;2023-02-28T01:42:19;9.43;;;3.60;;
67861;SDS011;54665;51.462;6.698;2023-02-28T01:47:19;10.00;;;3.90;;
67861;SDS011;54665;51.462;6.698;2023-02-28T01:49:46;9.85;;;4.30;;
67861;SDS011;54665;51.462;6.698;2023-02-28T01:52:12;10.43;;;4.40;;
67861;SDS011;54665;51.462;6.698;2023-02-28T01:54:48;10.05;;;3.75;;
67861;SDS011;54665;51.462;6.698;2023-02-28T01:57:17;8.47;;;3.53;;
67861;SDS011;54665;51.462;6.698;2023-02-28T01:59:48;8.13;;;3.60;;
67861;SDS011;54665;51.462;6.698;2023-02-28T02:02:17;11.80;;;4.22;;
67861;SDS011;54665;51.462;6.698;2023-02-28T02:04:53;12.18;;;4.75;;
67861;SDS011;54665;51.462;6.698;2023-02-28T02:07:31;12.75;;;4.88;;
67861;SDS011;54665;51.462;6.698;2023-02-28T02:15:29;11.30;;;4.10;;
67861;SDS011;54665;51.462;6.698;2023-02-28T02:17:57;12.23;;;3.95;;
67861;SDS011;54665;51.462;6.698;2023-02-28T02:35:14;9.75;;;3.95;;
67861;SDS011;54665;51.462;6.698;2023-02-28T02:43:58;12.13;;;4.55;;
67861;SDS011;54665;51.462;6.698;2023-02-28T02:46:29;12.07;;;4.57;;
67861;SDS011;54665;51.462;6.698;2023-02-28T02:49:00;13.07;;;4.93;;
67861;SDS011;54665;51.462;6.698;2023-02-28T02:51:28;10.73;;;4.33;;
67861;SDS011;54665;51.462;6.698;2023-02-28T02:54:00;10.75;;;4.30;;
67861;SDS011;54665;51.462;6.698;2023-02-28T02:56:32;7.93;;;3.70;;
67861;SDS011;54665;51.462;6.698;2023-02-28T02:59:01;12.57;;;4.85;;
67861;SDS011;54665;51.462;6.698;2023-02-28T03:01:30;10.75;;;4.20;;
67861;SDS011;54665;51.462;6.698;2023-02-28T03:03:57;10.10;;;4.13;;
67861;SDS011;54665;51.462;6.698;2023-02-28T03:06:26;13.45;;;4.00;;
67861;SDS011;54665;51.462;6.698;2023-02-28T03:08:52;10.85;;;4.38;;
67861;SDS011;54665;51.462;6.698;2023-02-28T03:11:18;10.05;;;3.90;;
67861;SDS011;54665;51.462;6.698;2023-02-28T03:14:07;13.27;;;4.27;;
67861;SDS011;54665;51.462;6.698;2023-02-28T03:20:05;10.60;;;3.50;;
67861;SDS011;54665;51.462;6.698;2023-02-28T03:28:30;7.80;;;2.80;;
67861;SDS011;54665;51.462;6.698;2023-02-28T03:36:44;6.00;;;2.40;;
67861;SDS011;54665;51.462;6.698;2023-02-28T03:39:20;10.73;;;3.25;;
67861;SDS011;54665;51.462;6.698;2023-02-28T03:44:19;7.13;;;3.00;;
67861;SDS011;54665;51.462;6.698;2023-02-28T03:46:54;10.57;;;3.30;;
67861;SDS011;54665;51.462;6.698;2023-02-28T03:49:26;7.03;;;3.17;;
67861;SDS011;54665;51.462;6.698;2023-02-28T03:51:55;7.70;;;3.20;;
67861;SDS011;54665;51.462;6.698;2023-02-28T03:54:31;9.07;;;2.97;;
67861;SDS011;54665;51.462;6.698;2023-02-28T03:57:10;7.97;;;3.08;;
67861;SDS011;54665;51.462;6.698;2023-02-28T03:59:38;8.48;;;3.42;;
67861;SDS011;54665;51.462;6.698;2023-02-28T04:02:07;7.60;;;3.10;;
67861;SDS011;54665;51.462;6.698;2023-02-28T04:04:32;8.33;;;3.50;;
67861;SDS011;54665;51.462;6.698;2023-02-28T04:07:06;10.85;;;3.45;;
67861;SDS011;54665;51.462;6.698;2023-02-28T04:09:33;8.80;;;3.40;;
67861;SDS011;54665;51.462;6.698;2023-02-28T04:11:59;7.23;;;3.20;;
67861;SDS011;54665;51.462;6.698;2023-02-28T04:14:25;8.73;;;3.30;;
67861;SDS011;54665;51.462;6.698;2023-02-28T04:16:50;7.60;;;3.17;;
67861;SDS011;54665;51.462;6.698;2023-02-28T04:19:16;7.90;;;3.03;;
67861;SDS011;54665;51.462;6.698;2023-02-28T04:21:42;8.60;;;3.40;;
67861;SDS011;54665;51.462;6.698;2023-02-28T04:24:10;10.05;;;2.92;;
67861;SDS011;54665;51.462;6.698;2023-02-28T04:26:45;8.20;;;2.97;;
67861;SDS011;54665;51.462;6.698;2023-02-28T04:29:12;7.90;;;3.05;;
67861;SDS011;54665;51.462;6.698;2023-02-28T04:31:42;8.60;;;3.20;;
67861;SDS011;54665;51.462;6.698;2023-02-28T04:34:07;7.37;;;2.83;;
67861;SDS011;54665;51.462;6.698;2023-02-28T04:36:33;6.57;;;2.67;;
67861;SDS011;54665;51.462;6.698;2023-02-28T04:38:58;8.57;;;3.13;;
67861;SDS011;54665;51.462;6.698;2023-02-28T04:41:24;7.30;;;2.70;;
67861;SDS011;54665;51.462;6.698;2023-02-28T04:43:52;6.80;;;2.80;;
67861;SDS011;54665;51.462;6.698;2023-02-28T04:46:18;7.47;;;2.60;;
67861;SDS011;54665;51.462;6.698;2023-02-28T04:48:44;7.18;;;2.70;;
67861;SDS011;54665;51.462;6.698;2023-02-28T04:51:10;7.53;;;2.40;;
67861;SDS011;54665;51.462;6.698;2023-02-28T04:53:38;7.20;;;2.60;;
67861;SDS011;54665;51.462;6.698;2023-02-28T04:56:05;5.75;;;2.50;;
67861;SDS011;54665;51.462;6.698;2023-02-28T04:58:31;6.05;;;2.45;;
67861;SDS011;54665;51.462;6.698;2023-02-28T05:03:47;7.03;;;2.50;;
67861;SDS011;54665;51.462;6.698;2023-02-28T05:06:13;6.55;;;2.65;;
67861;SDS011;54665;51.462;6.698;2023-02-28T05:08:39;6.82;;;2.88;;
67861;SDS011;54665;51.462;6.698;2023-02-28T05:11:06;10.45;;;3.83;;
67861;SDS011;54665;51.462;6.698;2023-02-28T05:13:40;8.15;;;3.03;;
67861;SDS011;54665;51.462;6.698;2023-02-28T05:16:05;8.57;;;2.83;;
67861;SDS011;54665;51.462;6.698;2023-02-28T05:18:31;7.10;;;2.33;;
67861;SDS011;54665;51.462;6.698;2023-02-28T05:20:56;5.70;;;2.40;;
67861;SDS011;54665;51.462;6.698;2023-02-28T05:23:22;8.67;;;2.53;;
67861;SDS011;54665;51.462;6.698;2023-02-28T05:25:48;6.80;;;2.80;;
67861;SDS011;54665;51.462;6.698;2023-02-28T05:28:13;7.07;;;2.90;;
67861;SDS011;54665;51.462;6.698;2023-02-28T05:30:39;8.52;;;2.90;;
67861;SDS011;54665;51.462;6.698;2023-02-28T05:33:04;6.53;;;2.77;;
67861;SDS011;54665;51.462;6.698;2023-02-28T05:35:30;8.27;;;3.03;;
67861;SDS011;54665;51.462;6.698;2023-02-28T05:37:55;10.10;;;2.97;;
67861;SDS011;54665;51.462;6.698;2023-02-28T05:40:20;8.18;;;3.28;;
67861;SDS011;54665;51.462;6.698;2023-02-28T05:42:46;8.73;;;2.87;;
67861;SDS011;54665;51.462;6.698;2023-02-28T05:45:12;9.50;;;3.15;;
67861;SDS011;54665;51.462;6.698;2023-02-28T05:47:38;7.33;;;2.40;;
67861;SDS011;54665;51.462;6.698;2023-02-28T05:50:04;8.52;;;3.05;;
67861;SDS011;54665;51.462;6.698;2023-02-28T05:52:30;9.40;;;3.05;;
67861;SDS011;54665;51.462;6.698;2023-02-28T05:54:56;9.87;;;3.23;;
67861;SDS011;54665;51.462;6.698;2023-02-28T05:57:21;7.30;;;3.20;;
67861;SDS011;54665;51.462;6.698;2023-02-28T05:59:48;7.20;;;3.25;;
67861;SDS011;54665;51.462;6.698;2023-02-28T06:02:15;7.27;;;3.17;;
67861;SDS011;54665;51.462;6.698;2023-02-28T06:04:41;6.40;;;3.22;;
67861;SDS011;54665;51.462;6.698;2023-02-28T06:07:08;8.98;;;2.95;;
67861;SDS011;54665;51.462;6.698;2023-02-28T06:09:34;6.00;;;2.78;;
67861;SDS011;54665;51.462;6.698;2023-02-28T06:12:00;7.77;;;2.80;;
67861;SDS011;54665;51.462;6.698;2023-02-28T06:14:28;9.32;;;3.28;;
67861;SDS011;54665;51.462;6.698;2023-02-28T06:16:56;8.15;;;2.97;;
67861;SDS011;54665;51.462;6.698;2023-02-28T06:19:22;8.63;;;2.90;;
67861;SDS011;54665;51.462;6.698;2023-02-28T06:21:50;8.88;;;3.15;;
67861;SDS011;54665;51.462;6.698;2023-02-28T06:24:18;10.88;;;3.58;;
67861;SDS011;54665;51.462;6.698;2023-02-28T06:26:47;9.75;;;3.90;;
67861;SDS011;54665;51.462;6.698;2023-02-28T06:29:13;11.10;;;3.85;;
67861;SDS011;54665;51.462;6.698;2023-02-28T06:31:42;11.20;;;4.00;;
67861;SDS011;54665;51.462;6.698;2023-02-28T06:34:09;13.57;;;4.05;;
67861;SDS011;54665;51.462;6.698;2023-02-28T06:36:37;11.55;;;4.13;;
67861;SDS011;54665;51.462;6.698;2023-02-28T06:39:03;9.52;;;3.30;;
67861;SDS011;54665;51.462;6.698;2023-02-28T06:41:28;10.00;;;3.30;;
67861;SDS011;54665;51.462;6.698;2023-02-28T06:43:54;9.93;;;3.80;;
67861;SDS011;54665;51.462;6.698;2023-02-28T06:46:20;12.50;;;5.22;;
67861;SDS011;54665;51.462;6.698;2023-02-28T06:48:45;15.23;;;5.57;;
67861;SDS011;54665;51.462;6.698;2023-02-28T06:51:12;13.80;;;4.40;;
67861;SDS011;54665;51.462;6.698;2023-02-28T06:53:42;18.95;;;6.00;;
67861;SDS011;54665;51.462;6.698;2023-02-28T06:56:09;17.15;;;5.68;;
67861;SDS011;54665;51.462;6.698;2023-02-28T06:58:37;40.47;;;14.30;;
67861;SDS011;54665;51.462;6.698;2023-02-28T07:01:04;26.90;;;9.43;;
67861;SDS011;54665;51.462;6.698;2023-02-28T07:03:31;19.95;;;7.15;;
67861;SDS011;54665;51.462;6.698;2023-02-28T07:05:56;11.27;;;4.53;;
67861;SDS011;54665;51.462;6.698;2023-02-28T07:08:25;17.63;;;6.77;;
67861;SDS011;54665;51.462;6.698;2023-02-28T07:10:55;13.68;;;5.07;;
67861;SDS011;54665;51.462;6.698;2023-02-28T07:13:21;21.70;;;7.15;;
67861;SDS011;54665;51.462;6.698;2023-02-28T07:16:00;15.33;;;5.13;;
67861;SDS011;54665;51.462;6.698;2023-02-28T07:18:26;20.73;;;8.30;;
67861;SDS011;54665;51.462;6.698;2023-02-28T07:20:52;28.17;;;8.43;;
67861;SDS011;54665;51.462;6.698;2023-02-28T07:23:18;50.73;;;16.90;;
67861;SDS011;54665;51.462;6.698;2023-02-28T07:25:44;19.15;;;6.45;;
67861;SDS011;54665;51.462;6.698;2023-02-28T07:28:10;10.40;;;3.50;;
67861;SDS011;54665;51.462;6.698;2023-02-28T07:30:36;9.13;;;3.77;;
67861;SDS011;54665;51.462;6.698;2023-02-28T07:33:01;20.83;;;8.40;;
67861;SDS011;54665;51.462;6.698;2023-02-28T07:35:27;29.52;;;9.40;;
67861;SDS011;54665;51.462;6.698;2023-02-28T07:37:52;11.10;;;4.10;;
67861;SDS011;54665;51.462;6.698;2023-02-28T07:40:17;21.93;;;7.90;;
67861;SDS011;54665;51.462;6.698;2023-02-28T07:42:43;30.43;;;10.27;;
67861;SDS011;54665;51.462;6.698;2023-02-28T07:45:09;27.60;;;10.13;;
67861;SDS011;54665;51.462;6.698;2023-02-28T07:47:39;13.88;;;4.82;;
67861;SDS011;54665;51.462;6.698;2023-02-28T07:50:06;10.55;;;4.40;;
67861;SDS011;54665;51.462;6.698;2023-02-28T07:52:32;9.10;;;4.03;;
67861;SDS011;54665;51.462;6.698;2023-02-28T07:54:58;7.70;;;3.42;;
67861;SDS011;54665;51.462;6.698;2023-02-28T07:57:23;20.47;;;5.70;;
67861;SDS011;54665;51.462;6.698;2023-02-28T07:59:49;8.40;;;3.60;;
67861;SDS011;54665;51.462;6.698;2023-02-28T08:02:14;10.57;;;3.77;;
67861;SDS011;54665;51.462;6.698;2023-02-28T08:04:41;10.80;;;3.78;;
67861;SDS011;54665;51.462;6.698;2023-02-28T08:07:06;19.20;;;6.00;;
67861;SDS011;54665;51.462;6.698;2023-02-28T08:09:33;10.48;;;3.78;;
67861;SDS011;54665;51.462;6.698;2023-02-28T08:11:59;11.70;;;3.35;;
67861;SDS011;54665;51.462;6.698;2023-02-28T08:14:24;19.30;;;6.53;;
67861;SDS011;54665;51.462;6.698;2023-02-28T08:16:50;20.10;;;9.33;;
67861;SDS011;54665;51.462;6.698;2023-02-28T08:19:15;9.20;;;4.13;;
67861;SDS011;54665;51.462;6.698;2023-02-28T08:21:41;11.70;;;3.40;;
67861;SDS011;54665;51.462;6.698;2023-02-28T08:24:06;9.40;;;4.37;;
67861;SDS011;54665;51.462;6.698;2023-02-28T08:26:32;9.77;;;4.25;;
67861;SDS011;54665;51.462;6.698;2023-02-28T08:28:58;7.20;;;3.40;;
67861;SDS011;54665;51.462;6.698;2023-02-28T08:31:23;7.55;;;3.63;;
67861;SDS011;54665;51.462;6.698;2023-02-28T08:33:49;7.10;;;3.23;;
67861;SDS011;54665;51.462;6.698;2023-02-28T08:36:16;7.63;;;3.20;;
67861;SDS011;54665;51.462;6.698;2023-02-28T08:38:42;8.57;;;3.40;;
67861;SDS011;54665;51.462;6.698;2023-02-28T08:41:09;7.97;;;2.70;;
67861;SDS011;54665;51.462;6.698;2023-02-28T08:43:36;8.52;;;3.78;;
67861;SDS011;54665;51.462;6.698;2023-02-28T08:46:02;9.67;;;4.33;;
67861;SDS011;54665;51.462;6.698;2023-02-28T08:48:29;5.93;;;2.80;;
67861;SDS011;54665;51.462;6.698;2023-02-28T08:53:22;18.10;;;6.10;;
67861;SDS011;54665;51.462;6.698;2023-02-28T08:55:55;5.90;;;2.80;;
67861;SDS011;54665;51.462;6.698;2023-02-28T08:58:27;10.47;;;4.07;;
67861;SDS011;54665;51.462;6.698;2023-02-28T09:00:53;7.00;;;3.05;;
67861;SDS011;54665;51.462;6.698;2023-02-28T09:03:19;19.03;;;7.13;;
67861;SDS011;54665;51.462;6.698;2023-02-28T09:05:52;10.02;;;3.22;;
67861;SDS011;54665;51.462;6.698;2023-02-28T09:08:19;10.73;;;4.63;;
67861;SDS011;54665;51.462;6.698;2023-02-28T09:10:44;5.60;;;2.37;;
67861;SDS011;54665;51.462;6.698;2023-02-28T09:13:10;15.10;;;5.73;;
67861;SDS011;54665;51.462;6.698;2023-02-28T09:15:36;7.80;;;3.33;;
67861;SDS011;54665;51.462;6.698;2023-02-28T09:18:02;5.95;;;2.63;;
67861;SDS011;54665;51.462;6.698;2023-02-28T09:20:28;6.03;;;2.57;;
67861;SDS011;54665;51.462;6.698;2023-02-28T09:22:53;5.20;;;2.60;;
67861;SDS011;54665;51.462;6.698;2023-02-28T09:25:18;7.80;;;2.83;;
67861;SDS011;54665;51.462;6.698;2023-02-28T09:27:44;5.53;;;2.17;;
67861;SDS011;54665;51.462;6.698;2023-02-28T09:30:10;5.78;;;2.03;;
67861;SDS011;54665;51.462;6.698;2023-02-28T09:32:36;5.32;;;1.90;;
67861;SDS011;54665;51.462;6.698;2023-02-28T09:35:02;4.63;;;2.03;;
67861;SDS011;54665;51.462;6.698;2023-02-28T09:37:27;3.90;;;2.00;;
67861;SDS011;54665;51.462;6.698;2023-02-28T09:39:54;3.80;;;1.60;;
67861;SDS011;54665;51.462;6.698;2023-02-28T09:42:32;5.37;;;1.90;;
67861;SDS011;54665;51.462;6.698;2023-02-28T09:45:00;5.30;;;1.90;;
67861;SDS011;54665;51.462;6.698;2023-02-28T09:47:31;6.80;;;2.17;;
67861;SDS011;54665;51.462;6.698;2023-02-28T09:50:05;4.13;;;1.90;;
67861;SDS011;54665;51.462;6.698;2023-02-28T09:52:39;3.60;;;1.70;;
67861;SDS011;54665;51.462;6.698;2023-02-28T09:55:48;3.63;;;1.60;;
67861;SDS011;54665;51.462;6.698;2023-02-28T09:58:04;2.90;;;1.50;;
67861;SDS011;54665;51.462;6.698;2023-02-28T10:00:34;5.68;;;2.15;;
67861;SDS011;54665;51.462;6.698;2023-02-28T10:03:22;3.63;;;1.40;;
67861;SDS011;54665;51.462;6.698;2023-02-28T10:05:54;4.13;;;1.93;;
67861;SDS011;54665;51.462;6.698;2023-02-28T10:10:55;3.33;;;1.57;;
67861;SDS011;54665;51.462;6.698;2023-02-28T10:13:26;14.43;;;4.50;;
67861;SDS011;54665;51.462;6.698;2023-02-28T10:16:00;5.45;;;1.60;;
67861;SDS011;54665;51.462;6.698;2023-02-28T10:18:31;5.07;;;1.98;;
67861;SDS011;54665;51.462;6.698;2023-02-28T10:21:17;9.05;;;2.63;;
67861;SDS011;54665;51.462;6.698;2023-02-28T10:24:04;8.73;;;2.00;;
67861;SDS011;54665;51.462;6.698;2023-02-28T10:26:39;2.95;;;1.40;;
67861;SDS011;54665;51.462;6.698;2023-02-28T10:29:09;2.78;;;1.05;;
67861;SDS011;54665;51.462;6.698;2023-02-28T10:31:35;4.03;;;1.58;;
67861;SDS011;54665;51.462;6.698;2023-02-28T10:34:00;3.93;;;1.70;;
67861;SDS011;54665;51.462;6.698;2023-02-28T10:36:26;3.10;;;1.42;;
67861;SDS011;54665;51.462;6.698;2023-02-28T10:38:53;3.38;;;1.40;;
67861;SDS011;54665;51.462;6.698;2023-02-28T10:41:29;3.53;;;1.33;;
67861;SDS011;54665;51.462;6.698;2023-02-28T10:46:46;3.67;;;1.40;;
67861;SDS011;54665;51.462;6.698;2023-02-28T10:49:23;3.00;;;1.50;;
67861;SDS011;54665;51.462;6.698;2023-02-28T10:51:52;3.38;;;1.60;;
67861;SDS011;54665;51.462;6.698;2023-02-28T10:54:27;2.73;;;1.00;;
67861;SDS011;54665;51.462;6.698;2023-02-28T10:59:44;2.55;;;1.23;;
67861;SDS011;54665;51.462;6.698;2023-02-28T11:02:28;3.92;;;1.67;;
67861;SDS011;54665;51.462;6.698;2023-02-28T11:04:56;3.30;;;1.50;;
67861;SDS011;54665;51.462;6.698;2023-02-28T11:07:22;2.47;;;1.13;;
67861;SDS011;54665;51.462;6.698;2023-02-28T11:09:51;3.38;;;1.75;;
67861;SDS011;54665;51.462;6.698;2023-02-28T11:12:22;5.43;;;1.93;;
67861;SDS011;54665;51.462;6.698;2023-02-28T11:14:58;4.22;;;1.33;;
67861;SDS011;54665;51.462;6.698;2023-02-28T11:17:27;8.43;;;1.83;;
67861;SDS011;54665;51.462;6.698;2023-02-28T11:19:57;5.38;;;1.98;;
67861;SDS011;54665;51.462;6.698;2023-02-28T11:22:28;3.30;;;1.80;;
67861;SDS011;54665;51.462;6.698;2023-02-28T11:24:57;3.10;;;1.80;;
67861;SDS011;54665;51.462;6.698;2023-02-28T11:27:39;4.70;;;1.70;;
67861;SDS011;54665;51.462;6.698;2023-02-28T11:30:53;2.50;;;1.25;;
67861;SDS011;54665;51.462;6.698;2023-02-28T11:32:59;3.28;;;1.40;;
67861;SDS011;54665;51.462;6.698;2023-02-28T11:35:30;3.75;;;1.70;;
67861;SDS011;54665;51.462;6.698;2023-02-28T11:38:01;2.93;;;1.50;;
67861;SDS011;54665;51.462;6.698;2023-02-28T11:43:27;3.53;;;1.42;;
67861;SDS011;54665;51.462;6.698;2023-02-28T11:51:18;3.33;;;1.60;;
67861;SDS011;54665;51.462;6.698;2023-02-28T11:56:19;3.53;;;1.53;;
67861;SDS011;54665;51.462;6.698;2023-02-28T12:01:44;2.38;;;1.13;;
67861;SDS011;54665;51.462;6.698;2023-02-28T12:07:03;3.70;;;1.93;;
67861;SDS011;54665;51.462;6.698;2023-02-28T12:12:15;2.92;;;1.40;;
67861;SDS011;54665;51.462;6.698;2023-02-28T12:15:13;3.40;;;1.40;;
67861;SDS011;54665;51.462;6.698;2023-02-28T12:20:38;5.37;;;1.40;;
67861;SDS011;54665;51.462;6.698;2023-02-28T12:26:04;4.70;;;1.30;;
67861;SDS011;54665;51.462;6.698;2023-02-28T12:28:39;5.65;;;1.42;;
67861;SDS011;54665;51.462;6.698;2023-02-28T12:31:14;6.57;;;1.70;;
67861;SDS011;54665;51.462;6.698;2023-02-28T12:33:45;4.27;;;1.73;;
67861;SDS011;54665;51.462;6.698;2023-02-28T12:36:16;4.88;;;2.00;;
67861;SDS011;54665;51.462;6.698;2023-02-28T12:41:39;5.03;;;1.90;;
67861;SDS011;54665;51.462;6.698;2023-02-28T12:44:12;5.82;;;1.90;;
67861;SDS011;54665;51.462;6.698;2023-02-28T12:46:43;3.33;;;1.70;;
67861;SDS011;54665;51.462;6.698;2023-02-28T12:49:31;7.30;;;2.80;;
67861;SDS011;54665;51.462;6.698;2023-02-28T12:52:02;3.92;;;1.70;;
67861;SDS011;54665;51.462;6.698;2023-02-28T12:54:40;3.70;;;1.60;;
67861;SDS011;54665;51.462;6.698;2023-02-28T12:57:34;4.40;;;1.80;;
67861;SDS011;54665;51.462;6.698;2023-02-28T13:00:12;3.50;;;1.90;;
67861;SDS011;54665;51.462;6.698;2023-02-28T13:08:17;3.88;;;1.90;;
67861;SDS011;54665;51.462;6.698;2023-02-28T13:10:52;3.70;;;1.80;;
67861;SDS011;54665;51.462;6.698;2023-02-28T13:13:25;4.00;;;2.00;;
67861;SDS011;54665;51.462;6.698;2023-02-28T13:18:37;3.13;;;2.00;;
67861;SDS011;54665;51.462;6.698;2023-02-28T13:21:22;4.03;;;1.65;;
67861;SDS011;54665;51.462;6.698;2023-02-28T13:26:20;5.38;;;2.60;;
67861;SDS011;54665;51.462;6.698;2023-02-28T13:28:57;4.95;;;2.30;;
67861;SDS011;54665;51.462;6.698;2023-02-28T13:31:24;5.57;;;2.80;;
67861;SDS011;54665;51.462;6.698;2023-02-28T13:38:44;5.13;;;2.47;;
67861;SDS011;54665;51.462;6.698;2023-02-28T13:46:31;4.50;;;2.70;;
67861;SDS011;54665;51.462;6.698;2023-02-28T13:54:34;4.63;;;2.80;;
67861;SDS011;54665;51.462;6.698;2023-02-28T14:05:42;5.03;;;2.72;;
67861;SDS011;54665;51.462;6.698;2023-02-28T14:08:12;5.57;;;2.90;;
67861;SDS011;54665;51.462;6.698;2023-02-28T14:10:45;5.63;;;2.80;;
67861;SDS011;54665;51.462;6.698;2023-02-28T14:16:05;5.50;;;3.10;;
67861;SDS011;54665;51.462;6.698;2023-02-28T14:18:32;5.32;;;2.92;;
67861;SDS011;54665;51.462;6.698;2023-02-28T14:21:24;5.28;;;3.22;;
67861;SDS011;54665;51.462;6.698;2023-02-28T14:27:03;8.20;;;2.58;;
67861;SDS011;54665;51.462;6.698;2023-02-28T14:32:33;4.93;;;2.67;;
67861;SDS011;54665;51.462;6.698;2023-02-28T14:35:39;4.65;;;2.67;;
67861;SDS011;54665;51.462;6.698;2023-02-28T14:38:28;5.75;;;3.10;;
67861;SDS011;54665;51.462;6.698;2023-02-28T14:40:58;11.45;;;4.35;;
67861;SDS011;54665;51.462;6.698;2023-02-28T14:43:27;12.43;;;5.47;;
67861;SDS011;54665;51.462;6.698;2023-02-28T14:46:00;13.48;;;6.32;;
67861;SDS011;54665;51.462;6.698;2023-02-28T14:48:27;7.18;;;3.55;;
67861;SDS011;54665;51.462;6.698;2023-02-28T14:50:57;5.38;;;3.00;;
67861;SDS011;54665;51.462;6.698;2023-02-28T14:53:26;11.02;;;4.30;;
67861;SDS011;54665;51.462;6.698;2023-02-28T14:55:53;9.07;;;2.80;;
67861;SDS011;54665;51.462;6.698;2023-02-28T14:58:21;7.00;;;3.20;;
67861;SDS011;54665;51.462;6.698;2023-02-28T15:00:53;7.35;;;2.88;;
67861;SDS011;54665;51.462;6.698;2023-02-28T15:05:53;6.40;;;3.00;;
67861;SDS011;54665;51.462;6.698;2023-02-28T15:08:20;5.57;;;3.50;;
67861;SDS011;54665;51.462;6.698;2023-02-28T15:11:05;5.72;;;3.42;;
67861;SDS011;54665;51.462;6.698;2023-02-28T15:14:06;5.83;;;3.30;;
67861;SDS011;54665;51.462;6.698;2023-02-28T15:16:29;5.85;;;3.00;;
67861;SDS011;54665;51.462;6.698;2023-02-28T15:18:59;6.47;;;3.08;;
67861;SDS011;54665;51.462;6.698;2023-02-28T15:21:28;4.95;;;2.90;;
67861;SDS011;54665;51.462;6.698;2023-02-28T15:23:59;6.70;;;2.80;;
67861;SDS011;54665;51.462;6.698;2023-02-28T15:26:31;5.67;;;2.57;;
67861;SDS011;54665;51.462;6.698;2023-02-28T15:29:06;3.75;;;2.35;;
67861;SDS011;54665;51.462;6.698;2023-02-28T15:31:41;6.45;;;3.00;;
67861;SDS011;54665;51.462;6.698;2023-02-28T15:34:18;4.32;;;2.38;;
67861;SDS011;54665;51.462;6.698;2023-02-28T15:36:45;6.80;;;3.28;;
67861;SDS011;54665;51.462;6.698;2023-02-28T15:39:21;6.07;;;3.40;;
67861;SDS011;54665;51.462;6.698;2023-02-28T15:41:52;6.30;;;3.50;;
67861;SDS011;54665;51.462;6.698;2023-02-28T15:44:34;7.13;;;3.40;;
67861;SDS011;54665;51.462;6.698;2023-02-28T15:47:07;5.68;;;2.83;;
67861;SDS011;54665;51.462;6.698;2023-02-28T15:49:47;5.68;;;3.30;;
67861;SDS011;54665;51.462;6.698;2023-02-28T15:52:17;7.10;;;3.50;;
67861;SDS011;54665;51.462;6.698;2023-02-28T15:54:45;6.63;;;3.13;;
67861;SDS011;54665;51.462;6.698;2023-02-28T15:57:13;5.85;;;3.10;;
67861;SDS011;54665;51.462;6.698;2023-02-28T15:59:48;5.55;;;2.63;;
67861;SDS011;54665;51.462;6.698;2023-02-28T16:02:18;6.38;;;2.80;;
67861;SDS011;54665;51.462;6.698;2023-02-28T16:04:55;6.50;;;3.30;;
67861;SDS011;54665;51.462;6.698;2023-02-28T16:07:25;5.70;;;3.05;;
67861;SDS011;54665;51.462;6.698;2023-02-28T16:09:51;4.97;;;2.95;;
67861;SDS011;54665;51.462;6.698;2023-02-28T16:12:18;6.10;;;2.70;;
67861;SDS011;54665;51.462;6.698;2023-02-28T16:14:45;4.63;;;2.10;;
67861;SDS011;54665;51.462;6.698;2023-02-28T16:17:18;6.03;;;2.70;;
67861;SDS011;54665;51.462;6.698;2023-02-28T16:19:52;9.63;;;4.15;;
67861;SDS011;54665;51.462;6.698;2023-02-28T16:22:17;8.88;;;4.18;;
67861;SDS011;54665;51.462;6.698;2023-02-28T16:24:43;6.60;;;3.00;;
67861;SDS011;54665;51.462;6.698;2023-02-28T16:30:21;4.38;;;2.17;;
67861;SDS011;54665;51.462;6.698;2023-02-28T16:32:50;8.20;;;3.38;;
67861;SDS011;54665;51.462;6.698;2023-02-28T16:35:16;6.35;;;3.10;;
67861;SDS011;54665;51.462;6.698;2023-02-28T16:37:42;8.57;;;3.85;;
67861;SDS011;54665;51.462;6.698;2023-02-28T16:40:15;6.73;;;2.97;;
67861;SDS011;54665;51.462;6.698;2023-02-28T16:42:41;4.97;;;2.45;;
67861;SDS011;54665;51.462;6.698;2023-02-28T16:45:11;6.35;;;3.30;;
67861;SDS011;54665;51.462;6.698;2023-02-28T16:47:41;5.50;;;2.80;;
67861;SDS011;54665;51.462;6.698;2023-02-28T16:50:16;6.53;;;2.65;;
67861;SDS011;54665;51.462;6.698;2023-02-28T16:52:45;5.90;;;2.90;;
67861;SDS011;54665;51.462;6.698;2023-02-28T16:55:11;6.68;;;3.25;;
67861;SDS011;54665;51.462;6.698;2023-02-28T16:57:37;8.05;;;3.80;;
67861;SDS011;54665;51.462;6.698;2023-02-28T17:00:05;5.38;;;2.72;;
67861;SDS011;54665;51.462;6.698;2023-02-28T17:02:33;7.20;;;3.30;;
67861;SDS011;54665;51.462;6.698;2023-02-28T17:04:59;9.67;;;3.00;;
67861;SDS011;54665;51.462;6.698;2023-02-28T17:07:24;5.88;;;2.35;;
67861;SDS011;54665;51.462;6.698;2023-02-28T17:09:50;7.73;;;3.20;;
67861;SDS011;54665;51.462;6.698;2023-02-28T17:12:15;5.03;;;2.53;;